createdAt,value
2023-02-04T00:06:03.690Z,100.00
2023-02-04T00:13:38.832Z,100.00
2023-02-04T00:21:12.960Z,100.00
2023-02-04T00:28:48.359Z,100.00
2023-02-04T00:36:22.400Z,100.00
2023-02-04T00:43:57.767Z,100.00
2023-02-04T00:51:31.615Z,100.00
2023-02-04T00:59:06.798Z,100.00
2023-02-04T01:06:40.561Z,100.00
2023-02-04T01:14:15.812Z,100.00
2023-02-04T01:21:50.219Z,100.00
2023-02-04T01:29:25.349Z,100.00
2023-02-04T01:36:59.148Z,100.00
2023-02-04T01:44:34.360Z,100.00
2023-02-04T01:52:08.612Z,100.00
2023-02-04T01:59:44.759Z,100.00
2023-02-04T02:07:18.517Z,100.00
2023-02-04T02:14:53.709Z,100.00
2023-02-04T02:22:31.471Z,100.00
2023-02-04T02:30:09.623Z,100.00
2023-02-04T02:37:43.700Z,100.00
2023-02-04T02:45:23.928Z,100.00
2023-02-04T02:52:58.139Z,100.00
2023-02-04T03:00:33.576Z,100.00
2023-02-04T03:08:09.039Z,100.00
2023-02-04T03:15:45.794Z,100.00
2023-02-04T03:23:20.824Z,100.00
2023-02-04T03:30:56.751Z,100.00
2023-02-04T03:38:30.871Z,100.00
2023-02-04T03:46:06.211Z,100.00
2023-02-04T03:53:39.975Z,100.00
2023-02-04T04:01:15.129Z,100.00
2023-02-04T04:08:49.014Z,100.00
2023-02-04T04:16:24.523Z,100.00
2023-02-04T04:23:58.785Z,100.00
2023-02-04T04:31:33.841Z,100.00
2023-02-04T04:39:07.685Z,100.00
2023-02-04T04:46:42.932Z,100.00
2023-02-04T04:54:16.906Z,100.00
2023-02-04T05:01:52.064Z,100.00
2023-02-04T05:09:26.081Z,100.00
2023-02-04T05:17:01.234Z,100.00
2023-02-04T05:24:35.018Z,100.00
2023-02-04T05:32:10.175Z,100.00
2023-02-04T05:39:43.999Z,100.00
2023-02-04T05:47:20.489Z,100.00
2023-02-04T05:54:54.380Z,100.00
2023-02-04T06:02:29.563Z,100.00
2023-02-04T06:10:03.455Z,100.00
2023-02-04T06:17:38.614Z,100.00
2023-02-04T06:25:12.442Z,100.00
2023-02-04T06:32:47.861Z,100.00
2023-02-04T06:40:21.958Z,100.00
2023-02-04T06:47:57.158Z,100.00
2023-02-04T06:55:30.699Z,100.00
2023-02-04T07:03:07.604Z,100.00
2023-02-04T07:10:42.073Z,100.00
2023-02-04T07:18:17.979Z,100.00
2023-02-04T07:25:54.274Z,100.00
2023-02-04T07:33:29.627Z,100.00
2023-02-04T07:41:03.469Z,100.00
2023-02-04T07:48:38.648Z,100.00
2023-02-04T07:56:12.552Z,100.00
2023-02-04T08:03:47.711Z,100.00
2023-02-04T08:11:21.481Z,100.00
2023-02-04T08:18:56.895Z,100.00
2023-02-04T08:26:31.117Z,100.00
2023-02-04T08:34:06.071Z,100.00
2023-02-04T08:41:39.968Z,100.00
2023-02-04T08:49:15.182Z,100.00
2023-02-04T08:56:50.162Z,100.00
2023-02-04T09:04:25.740Z,100.00
2023-02-04T09:11:59.520Z,100.00
2023-02-04T09:19:34.720Z,100.00
2023-02-04T09:27:08.624Z,100.00
2023-02-04T09:34:43.959Z,100.00
2023-02-04T09:42:18.275Z,100.00
2023-02-04T09:49:53.884Z,100.00
2023-02-04T09:57:30.367Z,100.00
2023-02-04T10:05:06.005Z,100.00
2023-02-04T10:12:39.923Z,100.00
2023-02-04T10:20:16.066Z,100.00
2023-02-04T10:27:52.046Z,100.00
2023-02-04T10:35:27.854Z,100.00
2023-02-04T10:43:10.566Z,100.00
2023-02-04T10:50:47.629Z,99.35
2023-02-04T10:58:27.824Z,97.57
2023-02-04T11:06:04.252Z,96.52
2023-02-04T11:13:43.433Z,94.68
2023-02-04T11:21:26.971Z,91.05
2023-02-04T11:29:27.642Z,91.79
2023-02-04T11:37:17.159Z,90.71
2023-02-04T11:44:53.752Z,87.53
2023-02-04T11:52:28.991Z,85.68
2023-02-04T12:00:03.624Z,85.23
2023-02-04T12:07:40.345Z,84.69
2023-02-04T12:15:24.249Z,85.44
2023-02-04T12:22:59.356Z,86.42
2023-02-04T12:30:33.495Z,89.09
2023-02-04T12:38:08.825Z,89.08
2023-02-04T12:45:45.821Z,86.16
2023-02-04T12:53:21.201Z,85.64
2023-02-04T13:00:55.235Z,85.51
2023-02-04T13:08:30.768Z,85.01
2023-02-04T13:16:04.749Z,85.24
2023-02-04T13:23:39.822Z,84.13
2023-02-04T13:31:14.684Z,86.04
2023-02-04T13:38:49.771Z,85.52
2023-02-04T13:46:23.579Z,81.96
2023-02-04T13:54:00.314Z,81.06
2023-02-04T14:01:34.332Z,80.19
2023-02-04T14:09:09.872Z,82.46
2023-02-04T14:16:43.672Z,83.01
2023-02-04T14:24:19.053Z,79.83
2023-02-04T14:31:53.434Z,79.72
2023-02-04T14:39:28.685Z,79.06
2023-02-04T14:47:02.494Z,74.91
2023-02-04T14:54:37.650Z,76.62
2023-02-04T15:02:15.289Z,77.55
2023-02-04T15:09:50.834Z,78.05
2023-02-04T15:17:24.865Z,79.16
2023-02-04T15:25:00.048Z,79.53
2023-02-04T15:32:33.910Z,79.46
2023-02-04T15:40:10.565Z,80.16
2023-02-04T15:47:44.382Z,81.23
2023-02-04T15:55:20.121Z,77.93
2023-02-04T16:02:54.015Z,77.41
2023-02-04T16:10:30.050Z,77.42
2023-02-04T16:18:03.866Z,75.00
2023-02-04T16:25:39.305Z,76.22
2023-02-04T16:33:13.536Z,75.45
2023-02-04T16:40:48.865Z,75.63
2023-02-04T16:48:22.851Z,76.66
2023-02-04T16:55:58.041Z,76.91
2023-02-04T17:03:32.065Z,77.67
2023-02-04T17:11:24.965Z,78.96
2023-02-04T17:18:58.865Z,79.94
2023-02-04T17:26:38.162Z,80.66
2023-02-04T17:34:13.558Z,81.65
2023-02-04T17:41:48.933Z,82.55
2023-02-04T17:49:22.679Z,82.97
2023-02-04T17:57:02.620Z,81.96
2023-02-04T18:04:36.348Z,83.14
2023-02-04T18:12:16.307Z,83.03
2023-02-04T18:19:50.123Z,83.01
2023-02-04T18:27:32.221Z,83.65
2023-02-04T18:35:27.038Z,83.95
2023-02-04T18:43:19.377Z,84.49
2023-02-04T18:50:54.636Z,85.13
2023-02-04T18:58:35.227Z,85.73
2023-02-04T19:06:28.837Z,86.27
2023-02-04T19:14:16.825Z,86.51
2023-02-04T19:21:51.510Z,86.10
2023-02-04T19:29:39.286Z,85.89
2023-02-04T19:37:23.226Z,85.01
2023-02-04T19:44:59.393Z,82.61
2023-02-04T19:52:38.224Z,83.06
2023-02-04T20:00:40.172Z,82.57
2023-02-04T20:08:41.643Z,82.94
2023-02-04T20:16:39.448Z,84.01
2023-02-04T20:24:18.369Z,83.41
2023-02-04T20:31:55.603Z,84.21
2023-02-04T20:39:34.780Z,82.96
2023-02-04T20:47:17.596Z,83.92
2023-02-04T20:54:51.655Z,83.72
2023-02-04T21:02:30.110Z,85.04
2023-02-04T21:10:04.408Z,83.33
2023-02-04T21:17:39.959Z,83.64
2023-02-04T21:25:14.260Z,84.97
2023-02-04T21:32:49.434Z,85.52
2023-02-04T21:40:23.714Z,85.33
2023-02-04T21:47:58.894Z,86.42
2023-02-04T21:55:33.066Z,87.07
2023-02-04T22:03:13.039Z,88.86
2023-02-04T22:10:47.051Z,89.99
2023-02-04T22:18:22.575Z,91.15
2023-02-04T22:25:56.372Z,92.13
2023-02-04T22:33:31.607Z,93.82
2023-02-04T22:41:05.544Z,94.96
2023-02-04T22:48:40.693Z,96.29
2023-02-04T22:56:14.641Z,96.45
2023-02-04T23:03:50.940Z,96.62
2023-02-04T23:11:24.933Z,97.71
2023-02-04T23:19:00.643Z,98.57
2023-02-04T23:26:34.653Z,99.33
2023-02-04T23:34:09.588Z,100.00
2023-02-04T23:41:43.185Z,100.00
2023-02-04T23:49:18.249Z,100.00
2023-02-04T23:56:52.103Z,100.00
